Latest Coastal Weather Observations for Neptune Island

IDT60701

Issued at 5:05 pm EDT Saturday 1 November 2014 (issued every 10 minutes, with the page automatically refreshed every 10 minutes)

About coastal observations | Map of coastal stations | Coastal observations for TAS | Marine services | Other Formats
Station Details ID: 018115 Name: NEPTUNE ISLAND Lat: -35.34 Lon: 136.12 Height: 32.0 m
Data from the previous 72 hours. | See also: Recent months at Neptune Island
Date/Time
EDT
Temp

°C
Wind Pressure Rain
since 9am
mm
Weather Cloud Vis
km
Sea
Height
m
Swell
Dir
 
Speed
knots
Gust
knots
hPa Trend Height
m
Period
s
Dir
01/05:00pm 15.2 SW 22 25 1020.0 - 0.0 - - - - - - -
01/04:30pm 15.2 SSW 20 24 1019.7 - 0.0 - - - - - - -
01/04:00pm 15.6 SW 18 22 1019.6 - 0.0 - - - - - - -
01/03:30pm 15.8 SW 20 24 1019.5 - 0.0 - - - - - - -
01/03:00pm 15.6 SW 21 23 1019.5 - 0.0 - - - - - - -
01/02:30pm 15.5 SW 21 26 1019.4 - 0.0 - - - - - - -
01/02:00pm 15.8 SSW 21 25 1019.1 - 0.0 - - - - - - -
01/01:30pm 15.6 SW 21 27 1018.9 - 0.0 - - - - - - -
01/01:00pm 14.1 SW 23 28 1018.7 - 0.0 - - - - - - -
01/12:30pm 14.9 SW 21 25 1018.5 - 0.0 - - - - - - -
01/12:00pm 15.1 SW 21 26 1018.3 - 0.0 - - - - - - -
01/11:30am 14.7 SSW 20 25 1017.9 - 0.0 - - - - - - -
01/11:00am 14.5 SSW 23 30 1017.5 - 0.0 - - - - - - -
01/10:30am 14.4 SSW 23 29 1017.2 - 0.0 - - - - - - -
01/10:00am 13.7 SSW 25 29 1016.7 - 0.0 - - - - - - -
01/09:30am 13.7 SW 26 32 1016.0 - 1.6 - - - - - - -
01/09:00am 13.0 SSW 28 33 1015.3 - 1.6 - - - - - - -
01/08:30am 13.0 SW 29 34 1014.7 - 1.6 - - - - - - -
01/08:00am 12.8 SW 32 40 1013.9 - 1.6 - - - - - - -
01/07:53am 13.4 SW 29 40 1013.7 - 1.6 - - - - - - -
01/07:30am 13.4 SW 31 37 1013.4 - 1.6 - - - - - - -
01/07:00am 13.3 SW 30 35 1012.7 - 1.6 - - - - - - -
01/06:30am 13.1 SW 31 37 1012.0 - 1.6 - - - - - - -
01/06:00am 13.2 SSW 32 39 1011.4 - 1.6 - - - - - - -
01/05:50am 13.7 SW 29 42 1011.0 - 1.6 - - - - - - -
01/05:30am 13.7 SW 29 35 1010.8 - 1.6 - - - - - - -
01/05:00am 13.8 SW 30 35 1010.4 - 1.6 - - - - - - -
01/04:30am 13.7 SW 28 33 1010.1 - 1.6 - - - - - - -
01/04:00am 13.9 SW 29 34 1009.9 - 1.6 - - - - - - -
01/03:30am 14.0 SW 29 35 1009.4 - 1.6 - - - - - - -
01/03:00am 13.9 SW 28 35 1009.2 - 1.6 - - - - - - -
01/02:30am 14.1 SW 30 35 1009.1 - 1.6 - - - - - - -
01/02:00am 13.9 SSW 29 35 1008.8 - 1.6 - - - - - - -
01/01:30am 14.1 SW 30 37 1008.3 - 1.6 - - - - - - -
01/01:00am 14.2 SW 30 36 1008.0 - 1.6 - - - - - - -
01/12:30am 14.2 SW 29 34 1007.9 - 1.6 - - - - - - -
01/12:07am 14.7 SW 25 35 1007.6 - 1.6 - - - - - - -
01/12:00am 14.4 SW 24 28 1007.6 - 1.6 - - - - - - -
 
Date/Time
EDT
Temp

°C
Wind Pressure Rain
since 9am
mm
Weather Cloud Vis
km
Sea
Height
m
Swell
Dir
 
Speed
knots
Gust
knots
hPa Trend Height
m
Period
s
Dir
31/11:30pm 13.7 SW 25 29 1007.0 - 1.6 - - - - - - -
31/11:20pm 14.0 SW 27 31 1006.8 - 1.4 - - - - - - -
31/11:18pm 14.4 WSW 24 35 1006.5 - 1.4 - - - - - - -
31/11:00pm 15.1 W 21 25 1006.5 - 1.2 - - - - - - -
31/10:30pm 15.0 W 19 22 1006.7 - 1.2 - - - - - - -
31/10:00pm 14.6 W 17 21 1006.4 - 1.2 - - - - - - -
31/09:30pm 14.6 WSW 17 20 1005.7 - 1.2 - - - - - - -
31/09:00pm 14.4 WSW 15 18 1005.4 - 1.2 - - - - - - -
31/08:30pm 14.3 SW 17 21 1004.9 - 1.2 - - - - - - -
31/08:00pm 14.3 SW 15 18 1004.6 - 1.2 - - - - - - -
31/07:30pm 14.2 SW 21 25 1004.3 - 1.0 - - - - - - -
31/07:00pm 15.0 SW 21 25 1004.4 - 0.4 - - - - - - -
31/06:30pm 16.3 SW 22 26 1004.1 - 0.0 - - - - - - -
31/06:00pm 16.2 SW 23 27 1003.5 - 0.0 - - - - - - -
31/05:30pm 16.7 SW 25 28 1002.7 - 0.0 - - - - - - -
31/05:00pm 17.6 SW 23 28 1002.7 - 0.0 - - - - - - -
31/04:30pm 17.3 WSW 23 28 1002.9 - 0.0 - - - - - - -
31/04:00pm 17.4 WSW 21 24 1002.5 - 0.0 - - - - - - -
31/03:30pm 18.3 WSW 19 23 1002.6 - 0.0 - - - - - - -
31/03:00pm 19.7 WSW 17 20 1001.8 - 0.0 - - - - - - -
31/02:30pm 19.4 WSW 15 17 1002.2 - 0.0 - - - - - - -
31/02:00pm 19.8 W 14 16 1002.9 - 0.0 - - - - - - -
31/01:30pm 20.3 W 11 12 1003.0 - 0.0 - - - - - - -
31/01:00pm 19.5 W 14 15 1003.1 - 0.0 - - - - - - -
31/12:30pm 19.7 W 9 13 1002.9 - 0.0 - - - - - - -
31/12:00pm 21.0 W 8 9 1002.9 - 0.0 - - - - - - -
31/11:30am 19.7 WSW 7 8 1003.1 - 0.0 - - - - - - -
31/11:00am 19.6 W 5 7 1003.5 - 0.0 - - - - - - -
31/10:30am 19.2 W 7 9 1003.9 - 0.0 - - - - - - -
31/10:00am 19.6 NW 10 12 1004.0 - 0.0 - - - - - - -
31/09:30am 18.8 NNW 10 14 1003.4 - 0.0 - - - - - - -
31/09:00am 18.6 N 15 18 1002.9 - 0.0 - - - - - - -
31/08:30am 18.1 N 18 21 1002.7 - 0.0 - - - - - - -
31/08:00am 17.5 N 18 20 1002.8 - 0.0 - - - - - - -
31/07:30am 17.2 N 19 21 1002.7 - 0.0 - - - - - - -
31/07:00am 16.9 N 18 20 1003.2 - 0.0 - - - - - - -
31/06:30am 16.9 NNE 20 22 1003.1 - 0.0 - - - - - - -
31/06:00am 17.2 N 19 22 1003.5 - 0.0 - - - - - - -
31/05:30am 17.1 NNE 20 23 1003.7 - 0.0 - - - - - - -
31/05:00am 17.1 N 15 18 1004.5 - 0.0 - - - - - - -
31/04:30am 17.1 NNE 18 22 1004.5 - 0.0 - - - - - - -
31/04:00am 17.0 NNE 23 26 1004.7 - 0.0 - - - - - - -
31/03:30am 16.9 NNE 20 23 1005.2 - 0.0 - - - - - - -
31/03:00am 16.8 NNE 18 20 1006.0 - 0.0 - - - - - - -
31/02:30am 16.9 NNE 12 16 1006.6 - 0.0 - - - - - - -
31/02:00am 16.8 NE 13 14 1007.2 - 0.0 - - - - - - -
31/01:30am 16.9 ENE 11 13 1008.0 - 0.0 - - - - - - -
31/01:00am 16.9 ENE 13 14 1008.5 - 0.0 - - - - - - -
31/12:30am 16.9 ENE 11 13 1009.2 - 0.0 - - - - - - -
31/12:00am 16.9 ENE 12 14 1009.3 - 0.0 - - - - - - -
 
Date/Time
EDT
Temp

°C
Wind Pressure Rain
since 9am
mm
Weather Cloud Vis
km
Sea
Height
m
Swell
Dir
 
Speed
knots
Gust
knots
hPa Trend Height
m
Period
s
Dir
30/11:30pm 16.8 ENE 12 14 1009.7 - 0.0 - - - - - - -
30/11:00pm 16.8 ENE 13 15 1010.1 - 0.0 - - - - - - -
30/10:30pm 16.9 E 12 14 1010.6 - 0.0 - - - - - - -
30/10:00pm 16.8 E 12 14 1011.0 - 0.0 - - - - - - -
30/09:30pm 16.8 E 12 14 1010.9 - 0.0 - - - - - - -
30/09:00pm 16.9 E 11 13 1011.1 - 0.0 - - - - - - -
30/08:30pm 16.7 E 13 15 1010.4 - 0.0 - - - - - - -
30/08:00pm 16.8 ENE 13 15 1010.3 - 0.0 - - - - - - -
30/07:30pm 17.0 ENE 10 12 1010.6 - 0.0 - - - - - - -
30/07:00pm 16.8 ENE 11 13 1010.5 - 0.0 - - - - - - -
30/06:30pm 17.2 ENE 10 11 1010.9 - 0.0 - - - - - - -
30/06:00pm 17.8 NE 8 11 1011.3 - 0.0 - - - - - - -
30/05:30pm 17.5 NNE 10 15 1011.3 - 0.0 - - - - - - -
30/05:00pm 18.0 NNE 9 12 1011.8 - 0.0 - - - - - - -
30/04:30pm 17.7 NNE 9 12 1012.3 - 0.0 - - - - - - -
30/04:00pm 18.5 NE 12 15 1012.4 - 0.0 - - - - - - -
30/03:30pm 17.6 NE 9 12 1013.1 - 0.0 - - - - - - -
30/03:00pm 18.4 NE 7 10 1013.9 - 0.0 - - - - - - -
30/02:30pm 17.3 NE 8 10 1014.1 - 0.0 - - - - - - -
30/02:00pm 17.8 NNE 7 10 1014.6 - 0.0 - - - - - - -
30/01:30pm 18.6 NNE 8 10 1014.8 - 0.0 - - - - - - -
30/01:00pm 17.6 NNE 8 11 1015.4 - 0.0 - - - - - - -
30/12:30pm 18.2 NE 9 12 1014.9 - 0.0 - - - - - - -
30/12:00pm 17.0 NE 7 10 1015.5 - 0.0 - - - - - - -
30/11:30am 17.7 NE 7 10 1015.5 - 0.0 - - - - - - -
30/11:00am 17.0 NE 7 9 1015.7 - 0.0 - - - - - - -
30/10:30am 16.5 NNE 7 9 1015.9 - 0.0 - - - - - - -
30/10:00am 16.0 NE 5 7 1016.0 - 0.0 - - - - - - -
30/09:30am 15.8 NE 5 6 1016.0 - 0.0 - - - - - - -
30/09:00am 15.5 NNE 4 6 1016.0 - 0.0 - - - - - - -
30/08:30am 14.8 NNE 4 5 1016.0 - 0.0 - - - - - - -
30/08:00am 14.3 CALM 0 0 1015.8 - 0.0 - - - - - - -
30/07:30am 13.7 NE 3 5 1015.6 - 0.0 - - - - - - -
30/07:00am 13.2 CALM 0 0 1015.5 - 0.0 - - - - - - -
30/06:30am 12.9 E 4 5 1015.3 - 0.0 - - - - - - -
30/06:00am 13.2 CALM 0 0 1015.4 - 0.0 - - - - - - -
30/05:30am 13.3 SSW 1 6 1015.5 - 0.0 - - - - - - -
30/05:00am 13.0 NE 5 7 1014.4 - 0.0 - - - - - - -
30/04:30am 13.4 CALM 0 0 1015.2 - 0.0 - - - - - - -
30/04:00am 14.2 SSW 5 8 1015.6 - 0.0 - - - - - - -
30/03:30am 14.4 S 8 10 1015.8 - 0.0 - - - - - - -
30/03:00am 14.2 SSW 9 12 1016.1 - 0.0 - - - - - - -
30/02:30am 14.0 SSW 7 10 1016.2 - 0.0 - - - - - - -
30/02:00am 13.9 S 6 8 1016.2 - 0.0 - - - - - - -
30/01:30am 13.8 CALM 0 3 1016.6 - 0.0 - - - - - - -
30/01:00am 14.1 SSE 5 7 1016.9 - 0.0 - - - - - - -
30/12:30am 14.0 SSE 5 6 1017.1 - 0.0 - - - - - - -
30/12:00am 14.4 S 7 10 1017.3 - 0.0 - - - - - - -
 
Date/Time
EDT
Temp

°C
Wind Pressure Rain
since 9am
mm
Weather Cloud Vis
km
Sea
Height
m
Swell
Dir
 
Speed
knots
Gust
knots
hPa Trend Height
m
Period
s
Dir
29/11:30pm 14.6 SSW 10 12 1017.8 - 0.0 - - - - - - -
29/11:00pm 14.8 SSW 12 14 1017.9 - 0.0 - - - - - - -
29/10:30pm 15.1 SSW 11 13 1018.0 - 0.0 - - - - - - -
29/10:00pm 14.9 SSW 12 15 1017.8 - 0.0 - - - - - - -
29/09:30pm 15.1 SSW 14 16 1017.4 - 0.0 - - - - - - -
29/09:00pm 15.1 SSW 12 16 1017.0 - 0.0 - - - - - - -
29/08:30pm 15.4 SSW 13 16 1016.9 - 0.0 - - - - - - -
29/08:00pm 15.8 SSW 13 15 1016.9 - 0.0 - - - - - - -
29/07:30pm 15.7 SSW 14 16 1017.1 - 0.0 - - - - - - -
29/07:00pm 16.2 SW 14 17 1017.1 - 0.0 - - - - - - -
29/06:30pm 16.4 SW 15 19 1017.0 - 0.0 - - - - - - -
29/06:00pm 16.3 SW 14 16 1016.8 - 0.0 - - - - - - -

Other Formats:

Comma delimited format used in spreadsheet applications
http://www.bom.gov.au/fwo/IDT60701/IDT60701.94804.axf

JavaScript Object Notation format (JSON) in row-major order
http://www.bom.gov.au/fwo/IDT60701/IDT60701.94804.json